Aviation Digital Data Service (ADDS)

Output produced by METARs form (0124 UTC 16 January 2019)
found at http://www.aviationweather.gov/metar/data/
 
KEAR 152335Z 1600/1624 32006KT P6SM SKC 
     FM160800 02007KT P6SM BKN006 
     FM161700 10006KT P6SM OVC008 
     FM161900 11006KT P6SM OVC012 
     FM162200 13006KT P6SM OVC035
       
KEAT 152325Z 1600/1624 28004KT P6SM BKN012 OVC070 
     TEMPO 1600/1602 SCT012 OVC070 
     FM161400 28003KT 1/2SM FG OVC010 
     FM161800 28003KT 4SM BR OVC020 
     FM162000 28004KT P6SM BKN050
       
KEAU 152330Z 1600/1624 29011G17KT P6SM OVC012 
     FM160500 32010G16KT P6SM SCT020 
     FM161200 35007KT P6SM SKC 
     FM162100 07003KT P6SM SKC
       
KECG 152342Z 1600/1624 31004KT P6SM BKN035 
     FM160900 22004KT P6SM SKC 
     FM161500 25009KT P6SM SKC 
     FM162100 27006KT P6SM SKC
       
TAF AMD KEDW 152138Z 1521/1624 VRB06KT 9000 BR VCSH FEW005 SCT015 BKN050 BKN120
610608 QNH2997INS 
     BECMG 1600/1601 VRB06KT 8000 -SHRA BR SCT005 BKN015 OVC050 610609
QNH2996INS 
     BECMG 1606/1607 VRB06KT 8000 BR OVC004 620705 QNH3003INS 
     BECMG 1619/1620 23012G18KT 9999 NSW BKN004 BKN020 620807 QNH3008INS
TX11/1522Z TN03/1614Z
       
KEED 152321Z 1523/1624 VRB05KT P6SM -RA SCT007 BKN050 
     TEMPO 1600/1601 OVC007 
     FM160100 19006KT P6SM SCT040 OVC090 
     FM161400 VRB04KT P6SM SCT090 SCT250 
     FM161700 17007KT P6SM SCT090 BKN250
       
KEET 152337Z 1600/1624 31003KT P6SM OVC022 
     FM160200 00000KT P6SM BKN250 
     FM160900 00000KT 4SM BR SKC 
     FM161400 30003KT P6SM SKC
       
TAF KEFD 152000Z 1520/1702 13006KT 9999 BKN055 QNH3025INS 
     BECMG 1608/1609 11006KT 8000 BR OVC020 QNH3025INS 
     BECMG 1615/1616 11006KT 4800 -RA BR OVC010 QNH3025INS 
     BECMG 1620/1621 13009KT 8000 -DZ BR OVC005 QNH3016INS TX16/1620Z TN09/1612Z
       
KEGE 152344Z 1600/1624 VRB04KT P6SM OVC060 
     FM160300 VRB03KT P6SM VCSH BKN040 OVC050 
     FM161000 VRB04KT 3SM -SHSN BR BKN015 OVC035
       
TAF KEGI 151801Z 1518/1624 02009KT 9999 SCT020 QNH3030INS 
     BECMG 1600/1601 02009KT 9999 FEW020 FEW250 QNH3031INS 
     BECMG 1611/1612 05009KT 9999 SKC QNH3033INS TX13/1522Z TN01/1610Z
       
KEKN 152339Z 1600/1624 VRB03KT P6SM BKN015 
     FM160800 23004KT 4SM -FZDZ BKN010 
     FM161100 24004KT 3SM -FZDZSN OVC009 
     FM161800 27008G15KT 5SM -DZSN OVC010
       
KZZV 160001Z 1600/1624 23007KT 6SM HZ OVC010 
     FM160200 23007KT 5SM BR VCSH OVC007 
     FM160800 23007KT 3SM -FZDZSN BR OVC004 
     FM161400 24008KT 6SM -SHSN OVC008 
     FM161700 27008KT P6SM VCSH OVC015
       
KELP 152323Z 1600/1624 23006KT P6SM FEW050 SCT250 
     FM160200 VRB04KT P6SM FEW050 BKN200 
     FM161500 28008KT P6SM FEW050 BKN150
       
KELY 152335Z 1600/1624 17008KT P6SM SCT020 BKN050 
     FM160500 19011KT 4SM -SHSN BR OVC010 
     FM160900 19012KT P6SM VCSH OVC050 
     FM161800 18010KT P6SM OVC050
       
KEKO 152335Z 1600/1624 06008KT P6SM SCT025 BKN070 
     FM160700 16008KT 4SM -SN BR BKN015 OVC040 
     FM161200 23010KT P6SM VCSH BKN030 OVC050 
     FM161800 VRB06KT P6SM OVC050
       
TAF AMD KEND 160029Z 1600/1701 20009KT 9999 FEW250 QNH3010INS 
     BECMG 1602/1603 19006KT 6000 BR OVC010 QNH3011INS 
     BECMG 1608/1609 16006KT 4800 BR OVC005 QNH3008INS 
     BECMG 1614/1615 15009KT 4800 -DZ BR OVC005 QNH3007INS 
     BECMG 1615/1616 15009KT 8000 -DZ BKN005 OVC015 QNH2997INS 
     BECMG 1623/1624 19006KT 8000 -DZ OVC005 QNH2998INS TX11/1621Z TN03/1611Z
       
KENV 152342Z 1600/1624 VRB04KT P6SM OVC013 
     FM160100 VRB04KT P6SM VCSH OVC013 
     FM161800 VRB04KT P6SM OVC013
       
KENW 152320Z 1600/1624 24012G23KT P6SM OVC009 
     TEMPO 1602/1605 -FZDZ OVC007 
     FM160600 27010KT P6SM OVC008 
     FM160900 31012KT P6SM BKN016 
     FM161200 34011KT P6SM BKN050 
     FM161700 01009KT P6SM SCT130
       
KERI 160026Z 1600/1624 22012G20KT 6SM BR OVC017 
     FM160900 23015G25KT 4SM BR SCT008 OVC010 
     FM161300 26015G25KT 4SM BR SCT008 OVC010 
     FM161500 29015G25KT 6SM BR OVC010 
     FM162000 32013G23KT 5SM BR BKN020
       
KEUG 152320Z 1600/1624 02008KT P6SM BKN080 BKN120 
     FM160300 01005KT P6SM SCT060 OVC080 
     FM161200 VRB03KT P6SM -RA OVC050 
     FM162000 12006KT 6SM -RA SCT020 OVC040
       
KEUL 152343Z 1600/1624 VRB06KT P6SM VCFG SCT002 BKN020 
     FM160900 VRB06KT 2SM -SN BR OVC015 
     FM161100 VRB06KT 3/4SM -SN BR OVC009 
     FM161500 VRB06KT 6SM -RASN BR SCT010 OVC025 
     FM161700 14010KT P6SM SCT020 BKN035 
     FM162300 14010KT P6SM -RA SCT020 OVC035
       
KEVV 152330Z 1600/1624 22008KT P6SM OVC017 
     FM160600 22006KT P6SM BKN010 
     FM160900 23006KT P6SM OVC008 
     FM161800 26005KT P6SM BKN012 
     FM162000 VRB04KT P6SM OVC015
       
KEVW 152342Z 1600/1624 09009KT P6SM VCSH SCT020 BKN050 
     FM160300 11007KT P6SM VCSH SCT010 BKN040 
     FM161200 22012KT 2SM -SN BR BKN010 BKN020 
     FM162200 22015KT P6SM VCSH SCT020 BKN030
       
KEWN 152320Z 1600/1624 VRB03KT P6SM SKC 
     FM161800 28006KT P6SM SKC
       
KEWR 152339Z 1600/1706 27004KT P6SM FEW250 
     FM160400 24004KT P6SM FEW250 
     FM161100 25008KT P6SM FEW250 
     FM161400 25013G20KT P6SM BKN040 
     FM162200 26011KT P6SM BKN100 
     FM170100 31011KT P6SM SCT250
       
KEYW 160104Z 1601/1624 36010KT P6SM SCT028 
     FM161400 02010KT P6SM FEW030